Time,TemperatureF,DewpointF,PressureIn,WindDirection,WindDirectionDegrees,WindSpeedMPH,WindSpeedGustMPH,Humidity,HourlyPrecipIn,Conditions,Clouds,dailyrainin,SoftwareType,DateUTC
2013-06-10 00:06:00,60.8,56.0,29.87,South,175,0.0,0.0,84,0.00,,,0.00,weatherlink.com 1.10,2013-06-10 07:06:00,
2013-06-10 00:21:00,61.5,57.0,29.87,South,175,0.0,0.0,84,0.00,,,0.00,weatherlink.com 1.10,2013-06-10 07:21:00,
2013-06-10 00:36:00,62.0,57.0,29.86,South,175,0.0,0.0,83,0.00,,,0.00,weatherlink.com 1.10,2013-06-10 07:36:00,
2013-06-10 00:51:00,62.4,57.0,29.86,South,176,0.0,0.0,82,0.00,,,0.00,weatherlink.com 1.10,2013-06-10 07:51:00,
2013-06-10 01:07:00,62.8,57.0,29.86,South,175,0.0,0.0,81,0.00,,,0.00,weatherlink.com 1.10,2013-06-10 08:07:00,
2013-06-10 01:22:00,63.1,57.0,29.86,South,175,0.0,0.0,81,0.00,,,0.00,weatherlink.com 1.10,2013-06-10 08:22:00,
2013-06-10 01:37:00,63.3,57.0,29.86,South,175,0.0,0.0,81,0.00,,,0.00,weatherlink.com 1.10,2013-06-10 08:37:00,
2013-06-10 01:52:00,63.5,57.0,29.86,South,174,0.0,1.0,80,0.00,,,0.00,weatherlink.com 1.10,2013-06-10 08:52:00,
2013-06-10 02:07:00,63.6,57.0,29.86,SE,138,0.0,3.0,80,0.00,,,0.00,weatherlink.com 1.10,2013-06-10 09:07:00,
2013-06-10 02:22:00,63.7,57.0,29.86,SSE,161,1.0,2.0,79,0.00,,,0.00,weatherlink.com 1.10,2013-06-10 09:22:00,
2013-06-10 02:37:00,63.9,57.0,29.86,ESE,122,1.0,4.0,79,0.00,,,0.00,weatherlink.com 1.10,2013-06-10 09:37:00,
2013-06-10 02:52:00,63.9,57.0,29.86,SSE,160,0.0,2.0,78,0.00,,,0.00,weatherlink.com 1.10,2013-06-10 09:52:00,
2013-06-10 03:07:00,64.0,57.0,29.86,SE,136,2.0,2.0,78,0.00,,,0.00,weatherlink.com 1.10,2013-06-10 10:07:00,
2013-06-10 03:22:00,64.0,57.0,29.86,ESE,121,2.0,4.0,77,0.00,,,0.00,weatherlink.com 1.10,2013-06-10 10:22:00,
2013-06-10 03:37:00,64.0,57.0,29.86,SE,130,1.0,3.0,77,0.00,,,0.00,weatherlink.com 1.10,2013-06-10 10:37:00,
2013-06-10 03:52:00,64.0,57.0,29.87,SE,132,1.0,4.0,77,0.00,,,0.00,weatherlink.com 1.10,2013-06-10 10:52:00,
2013-06-10 04:07:00,64.0,57.0,29.86,East,87,1.0,3.0,77,0.00,,,0.00,weatherlink.com 1.10,2013-06-10 11:07:00,
2013-06-10 04:22:00,64.0,57.0,29.86,SE,127,1.0,2.0,77,0.00,,,0.00,weatherlink.com 1.10,2013-06-10 11:22:00,
2013-06-10 04:37:00,64.0,56.0,29.86,ESE,122,1.0,4.0,76,0.00,,,0.00,weatherlink.com 1.10,2013-06-10 11:37:00,
2013-06-10 04:52:00,64.0,56.0,29.86,South,174,1.0,3.0,76,0.00,,,0.00,weatherlink.com 1.10,2013-06-10 11:52:00,
2013-06-10 05:07:00,63.9,56.0,29.87,SE,138,1.0,2.0,76,0.00,,,0.00,weatherlink.com 1.10,2013-06-10 12:07:00,
2013-06-10 05:22:00,64.0,56.0,29.87,SE,138,2.0,2.0,76,0.00,,,0.00,weatherlink.com 1.10,2013-06-10 12:22:00,
2013-06-10 05:37:00,64.1,56.0,29.87,SE,134,2.0,3.0,76,0.00,,,0.00,weatherlink.com 1.10,2013-06-10 12:37:00,
2013-06-10 05:52:00,64.1,56.0,29.88,SE,127,2.0,3.0,76,0.00,,,0.00,weatherlink.com 1.10,2013-06-10 12:52:00,
2013-06-10 06:07:00,64.2,57.0,29.88,SE,124,1.0,4.0,76,0.00,,,0.00,weatherlink.com 1.10,2013-06-10 13:07:00,
2013-06-10 06:22:00,64.2,57.0,29.88,SE,134,2.0,4.0,76,0.00,,,0.00,weatherlink.com 1.10,2013-06-10 13:22:00,
2013-06-10 06:37:00,64.4,57.0,29.89,SSE,162,0.0,3.0,76,0.00,,,0.00,weatherlink.com 1.10,2013-06-10 13:37:00,
2013-06-10 06:52:00,64.4,57.0,29.89,East,79,1.0,3.0,76,0.00,,,0.00,weatherlink.com 1.10,2013-06-10 13:52:00,
2013-06-10 07:07:00,64.5,57.0,29.90,SE,143,0.0,4.0,76,0.00,,,0.00,weatherlink.com 1.10,2013-06-10 14:07:00,
2013-06-10 07:22:00,64.8,57.0,29.91,SE,128,0.0,2.0,75,0.00,,,0.00,weatherlink.com 1.10,2013-06-10 14:22:00,
2013-06-10 07:37:00,65.0,57.0,29.91,SE,127,2.0,3.0,75,0.00,,,0.00,weatherlink.com 1.10,2013-06-10 14:37:00,
2013-06-10 07:52:00,65.3,57.0,29.91,SE,144,1.0,2.0,74,0.00,,,0.00,weatherlink.com 1.10,2013-06-10 14:52:00,
2013-06-10 08:07:00,65.8,57.0,29.91,East,93,0.0,2.0,73,0.00,,,0.00,weatherlink.com 1.10,2013-06-10 15:07:00,
2013-06-10 08:22:00,66.1,57.0,29.91,ESE,122,1.0,3.0,72,0.00,,,0.00,weatherlink.com 1.10,2013-06-10 15:22:00,
2013-06-10 08:37:00,66.5,57.0,29.92,SE,129,3.0,4.0,72,0.00,,,0.00,weatherlink.com 1.10,2013-06-10 15:37:00,
2013-06-10 08:52:00,67.4,57.0,29.92,SE,143,1.0,4.0,70,0.00,,,0.00,weatherlink.com 1.10,2013-06-10 15:52:00,
2013-06-10 09:07:00,68.3,58.0,29.92,SW,214,1.0,4.0,69,0.00,,,0.00,weatherlink.com 1.10,2013-06-10 16:07:00,
2013-06-10 09:22:00,68.8,57.0,29.92,SSE,155,0.0,4.0,66,0.00,,,0.00,weatherlink.com 1.10,2013-06-10 16:22:00,
2013-06-10 09:37:00,69.3,57.0,29.92,WSW,257,2.0,2.0,66,0.00,,,0.00,weatherlink.com 1.10,2013-06-10 16:37:00,
2013-06-10 09:52:00,70.0,57.0,29.92,West,281,0.0,3.0,63,0.00,,,0.00,weatherlink.com 1.10,2013-06-10 16:52:00,
2013-06-10 10:07:00,71.0,58.0,29.92,WSW,254,3.0,5.0,63,0.00,,,0.00,weatherlink.com 1.10,2013-06-10 17:07:00,
2013-06-10 10:22:00,70.6,57.0,29.92,SW,231,3.0,5.0,63,0.00,,,0.00,weatherlink.com 1.10,2013-06-10 17:22:00,
2013-06-10 10:37:00,71.4,58.0,29.92,West,259,2.0,5.0,62,0.00,,,0.00,weatherlink.com 1.10,2013-06-10 17:37:00,
2013-06-10 10:52:00,71.3,57.0,29.92,SSW,198,3.0,7.0,62,0.00,,,0.00,weatherlink.com 1.10,2013-06-10 17:52:00,
2013-06-10 11:07:00,73.1,57.0,29.92,West,262,2.0,6.0,58,0.00,,,0.00,weatherlink.com 1.10,2013-06-10 18:07:00,
2013-06-10 11:23:00,73.9,58.0,29.92,WSW,256,3.0,6.0,58,0.00,,,0.00,weatherlink.com 1.10,2013-06-10 18:23:00,
2013-06-10 11:38:00,73.6,58.0,29.92,South,189,3.0,8.0,58,0.00,,,0.00,weatherlink.com 1.10,2013-06-10 18:38:00,
2013-06-10 11:53:00,74.4,59.0,29.92,SW,220,4.0,7.0,58,0.00,,,0.00,weatherlink.com 1.10,2013-06-10 18:53:00,
2013-06-10 12:08:00,73.9,59.0,29.92,West,268,5.0,9.0,59,0.00,,,0.00,weatherlink.com 1.10,2013-06-10 19:08:00,
2013-06-10 12:23:00,74.5,57.0,29.92,SW,226,3.0,8.0,55,0.00,,,0.00,weatherlink.com 1.10,2013-06-10 19:23:00,
2013-06-10 12:38:00,75.1,58.0,29.91,WSW,255,4.0,9.0,56,0.00,,,0.00,weatherlink.com 1.10,2013-06-10 19:38:00,
2013-06-10 12:53:00,75.3,58.0,29.91,SE,134,5.0,10.0,55,0.00,,,0.00,weatherlink.com 1.10,2013-06-10 19:53:00,
2013-06-10 13:08:00,75.5,59.0,29.90,SSW,210,5.0,10.0,56,0.00,,,0.00,weatherlink.com 1.10,2013-06-10 20:08:00,
2013-06-10 13:23:00,75.6,58.0,29.90,WSW,238,5.0,9.0,55,0.00,,,0.00,weatherlink.com 1.10,2013-06-10 20:23:00,
2013-06-10 13:38:00,76.7,58.0,29.89,WSW,255,3.0,8.0,53,0.00,,,0.00,weatherlink.com 1.10,2013-06-10 20:38:00,
2013-06-10 13:53:00,76.0,58.0,29.89,SW,228,5.0,11.0,53,0.00,,,0.00,weatherlink.com 1.10,2013-06-10 20:53:00,
2013-06-10 14:08:00,76.2,58.0,29.89,SE,145,5.0,10.0,53,0.00,,,0.00,weatherlink.com 1.10,2013-06-10 21:08:00,
2013-06-10 14:23:00,76.3,57.0,29.89,SW,226,6.0,13.0,52,0.00,,,0.00,weatherlink.com 1.10,2013-06-10 21:23:00,
2013-06-10 14:38:00,77.3,58.0,29.88,SW,235,2.0,13.0,52,0.00,,,0.00,weatherlink.com 1.10,2013-06-10 21:38:00,
2013-06-10 14:53:00,78.1,58.0,29.88,SW,229,3.0,10.0,51,0.00,,,0.00,weatherlink.com 1.10,2013-06-10 21:53:00,
2013-06-10 15:23:00,78.9,56.0,29.88,WSW,248,7.0,10.0,46,0.00,,,0.00,weatherlink.com 1.10,2013-06-10 22:23:00,
2013-06-10 15:38:00,78.8,57.0,29.87,WSW,238,6.0,11.0,47,0.00,,,0.00,weatherlink.com 1.10,2013-06-10 22:38:00,
2013-06-10 15:53:00,78.4,56.0,29.87,SW,221,1.0,13.0,47,0.00,,,0.00,weatherlink.com 1.10,2013-06-10 22:53:00,
2013-06-10 16:08:00,79.6,56.0,29.87,West,274,6.0,7.0,45,0.00,,,0.00,weatherlink.com 1.10,2013-06-10 23:08:00,
2013-06-10 16:23:00,79.2,57.0,29.87,SW,214,2.0,7.0,46,0.00,,,0.00,weatherlink.com 1.10,2013-06-10 23:23:00,
2013-06-10 16:38:00,78.8,56.0,29.87,West,279,4.0,9.0,46,0.00,,,0.00,weatherlink.com 1.10,2013-06-10 23:38:00,
2013-06-10 16:53:00,77.9,56.0,29.87,West,269,3.0,10.0,47,0.00,,,0.00,weatherlink.com 1.10,2013-06-10 23:53:00,
2013-06-10 17:08:00,77.6,56.0,29.86,West,261,2.0,10.0,48,0.00,,,0.00,weatherlink.com 1.10,2013-06-11 00:08:00,
2013-06-10 17:23:00,76.9,56.0,29.86,West,263,5.0,10.0,49,0.00,,,0.00,weatherlink.com 1.10,2013-06-11 00:23:00,
2013-06-10 17:38:00,76.5,56.0,29.86,West,276,2.0,10.0,50,0.00,,,0.00,weatherlink.com 1.10,2013-06-11 00:38:00,
2013-06-10 17:53:00,76.0,57.0,29.87,West,266,2.0,10.0,52,0.00,,,0.00,weatherlink.com 1.10,2013-06-11 00:53:00,
2013-06-10 18:08:00,75.1,57.0,29.86,WNW,301,4.0,9.0,53,0.00,,,0.00,weatherlink.com 1.10,2013-06-11 01:08:00,
2013-06-10 18:23:00,74.3,57.0,29.86,WNW,288,5.0,10.0,55,0.00,,,0.00,weatherlink.com 1.10,2013-06-11 01:23:00,
2013-06-10 18:38:00,73.4,58.0,29.86,WSW,240,6.0,11.0,58,0.00,,,0.00,weatherlink.com 1.10,2013-06-11 01:38:00,
2013-06-10 18:53:00,73.0,58.0,29.86,WNW,285,7.0,10.0,59,0.00,,,0.00,weatherlink.com 1.10,2013-06-11 01:53:00,
2013-06-10 19:08:00,72.4,58.0,29.87,WNW,287,7.0,11.0,60,0.00,,,0.00,weatherlink.com 1.10,2013-06-11 02:08:00,
2013-06-10 19:23:00,72.0,59.0,29.87,NW,305,4.0,6.0,63,0.00,,,0.00,weatherlink.com 1.10,2013-06-11 02:23:00,
2013-06-10 19:38:00,71.2,58.0,29.87,West,263,2.0,6.0,64,0.00,,,0.00,weatherlink.com 1.10,2013-06-11 02:38:00,
2013-06-10 19:53:00,69.9,58.0,29.86,West,264,2.0,6.0,66,0.00,,,0.00,weatherlink.com 1.10,2013-06-11 02:53:00,
2013-06-10 20:08:00,68.9,58.0,29.86,West,274,4.0,6.0,69,0.00,,,0.00,weatherlink.com 1.10,2013-06-11 03:08:00,
2013-06-10 20:23:00,68.4,58.0,29.86,West,276,0.0,4.0,70,0.00,,,0.00,weatherlink.com 1.10,2013-06-11 03:23:00,
2013-06-10 20:38:00,67.8,58.0,29.87,WNW,288,2.0,3.0,71,0.00,,,0.00,weatherlink.com 1.10,2013-06-11 03:38:00,
2013-06-10 20:53:00,67.4,57.0,29.87,WNW,290,4.0,6.0,70,0.00,,,0.00,weatherlink.com 1.10,2013-06-11 03:53:00,
2013-06-10 21:08:00,67.1,57.0,29.87,WNW,290,2.0,8.0,71,0.00,,,0.00,weatherlink.com 1.10,2013-06-11 04:08:00,
2013-06-10 21:23:00,66.9,58.0,29.88,West,265,2.0,5.0,72,0.00,,,0.00,weatherlink.com 1.10,2013-06-11 04:23:00,
2013-06-10 21:38:00,66.7,58.0,29.88,WSW,248,4.0,5.0,74,0.00,,,0.00,weatherlink.com 1.10,2013-06-11 04:38:00,
2013-06-10 21:53:00,66.4,58.0,29.89,West,261,2.0,3.0,75,0.00,,,0.00,weatherlink.com 1.10,2013-06-11 04:53:00,
2013-06-10 22:08:00,66.2,58.0,29.89,West,278,0.0,5.0,76,0.00,,,0.00,weatherlink.com 1.10,2013-06-11 05:08:00,
2013-06-10 22:23:00,66.1,59.0,29.90,West,265,2.0,3.0,77,0.00,,,0.00,weatherlink.com 1.10,2013-06-11 05:23:00,
2013-06-10 22:38:00,65.9,59.0,29.89,NW,312,4.0,6.0,77,0.00,,,0.00,weatherlink.com 1.10,2013-06-11 05:38:00,
2013-06-10 22:53:00,65.6,59.0,29.90,NNW,346,2.0,4.0,78,0.00,,,0.00,weatherlink.com 1.10,2013-06-11 05:53:00,
2013-06-10 23:08:00,65.5,58.0,29.90,West,274,2.0,7.0,78,0.00,,,0.00,weatherlink.com 1.10,2013-06-11 06:08:00,
2013-06-10 23:23:00,65.4,59.0,29.90,WNW,285,0.0,5.0,79,0.00,,,0.00,weatherlink.com 1.10,2013-06-11 06:23:00,
2013-06-10 23:38:00,65.1,58.0,29.90,WNW,285,0.0,4.0,79,0.00,,,0.00,weatherlink.com 1.10,2013-06-11 06:38:00,
2013-06-10 23:53:00,64.9,58.0,29.90,NW,312,1.0,5.0,79,0.00,,,0.00,weatherlink.com 1.10,2013-06-11 06:53:00,